createdAt,value
2019-02-25T00:00:56.309Z,73.06
2019-02-25T00:03:28.459Z,72.71
2019-02-25T00:05:58.871Z,72.46
2019-02-25T00:08:29.750Z,71.83
2019-02-25T00:11:00.027Z,71.14
2019-02-25T00:13:30.422Z,71.19
2019-02-25T00:16:02.088Z,71.55
2019-02-25T00:18:34.006Z,72.51
2019-02-25T00:21:04.774Z,73.13
2019-02-25T00:23:35.357Z,73.22
2019-02-25T00:26:05.807Z,72.74
2019-02-25T00:28:36.655Z,73.17
2019-02-25T00:31:06.952Z,73.02
2019-02-25T00:33:37.263Z,73.02
2019-02-25T00:36:08.046Z,73.51
2019-02-25T00:38:38.318Z,73.56
2019-02-25T00:41:08.818Z,73.79
2019-02-25T00:43:39.414Z,73.86
2019-02-25T00:46:10.194Z,74.19
2019-02-25T00:48:40.588Z,73.98
2019-02-25T00:51:11.328Z,73.30
2019-02-25T00:53:42.807Z,72.49
2019-02-25T00:56:13.234Z,71.99
2019-02-25T00:58:43.546Z,71.57
2019-02-25T01:01:13.887Z,71.61
2019-02-25T01:03:44.886Z,71.41
2019-02-25T01:06:15.374Z,71.13
2019-02-25T01:08:45.712Z,70.79
2019-02-25T01:11:16.488Z,70.97
2019-02-25T01:13:47.080Z,70.91
2019-02-25T01:16:17.428Z,70.62
2019-02-25T01:18:48.122Z,69.95
2019-02-25T01:21:18.545Z,69.97
2019-02-25T01:23:49.057Z,70.67
2019-02-25T01:26:19.773Z,72.48
2019-02-25T01:28:50.460Z,73.42
2019-02-25T01:31:20.787Z,74.18
2019-02-25T01:33:51.198Z,74.46
2019-02-25T01:36:21.893Z,74.85
2019-02-25T01:38:52.194Z,75.28
2019-02-25T01:41:22.572Z,75.11
2019-02-25T01:43:53.436Z,73.72
2019-02-25T01:46:23.965Z,71.93
2019-02-25T01:48:54.300Z,70.83
2019-02-25T01:51:25.055Z,70.81
2019-02-25T01:53:55.474Z,71.12
2019-02-25T01:56:25.871Z,71.09
2019-02-25T01:58:56.203Z,71.49
2019-02-25T02:01:26.614Z,72.12
2019-02-25T02:03:57.159Z,72.69
2019-02-25T02:06:27.669Z,73.00
2019-02-25T02:08:58.197Z,73.11
2019-02-25T02:11:28.943Z,73.15
2019-02-25T02:13:59.670Z,73.44
2019-02-25T02:16:30.001Z,74.16
2019-02-25T02:19:00.647Z,74.61
2019-02-25T02:21:31.178Z,75.18
2019-02-25T02:24:02.466Z,74.83
2019-02-25T02:26:32.946Z,74.47
2019-02-25T02:29:03.252Z,74.02
2019-02-25T02:31:33.814Z,73.86
2019-02-25T02:34:04.556Z,73.34
2019-02-25T02:36:34.847Z,72.61
2019-02-25T02:39:07.382Z,72.59
2019-02-25T02:42:15.462Z,72.52
2019-02-25T02:44:47.675Z,72.65
2019-02-25T02:47:37.624Z,72.58
2019-02-25T02:50:11.067Z,72.71
2019-02-25T02:52:41.338Z,72.85
2019-02-25T02:55:11.726Z,72.97
2019-02-25T02:57:42.591Z,72.89
2019-02-25T03:00:15.981Z,73.67
2019-02-25T03:02:46.858Z,74.77
2019-02-25T03:05:19.034Z,76.29
2019-02-25T03:07:49.798Z,76.15
2019-02-25T03:10:20.664Z,75.40
2019-02-25T03:12:50.941Z,74.53
2019-02-25T03:15:22.291Z,73.65
2019-02-25T03:17:52.991Z,73.40
2019-02-25T03:20:23.257Z,73.63
2019-02-25T03:22:53.585Z,74.04
2019-02-25T03:25:24.369Z,74.13
2019-02-25T03:27:54.886Z,74.44
2019-02-25T03:30:26.272Z,74.49
2019-02-25T03:32:56.989Z,74.18
2019-02-25T03:35:27.281Z,74.19
2019-02-25T03:37:57.931Z,74.29
2019-02-25T03:40:28.203Z,73.88
2019-02-25T03:42:58.573Z,73.02
2019-02-25T03:45:29.317Z,72.07
2019-02-25T03:47:59.823Z,72.01
2019-02-25T03:50:30.413Z,71.91
2019-02-25T03:53:00.820Z,72.00
2019-02-25T03:55:31.528Z,71.93
2019-02-25T03:58:01.861Z,71.94
2019-02-25T04:00:32.494Z,72.01
2019-02-25T04:03:03.234Z,71.45
2019-02-25T04:05:33.748Z,71.51
2019-02-25T04:08:04.341Z,71.28
2019-02-25T04:10:34.756Z,70.88
2019-02-25T04:13:05.519Z,72.00
2019-02-25T04:15:39.244Z,73.26
2019-02-25T04:18:09.567Z,72.57
2019-02-25T04:20:39.934Z,72.92
2019-02-25T04:23:10.602Z,74.06
2019-02-25T04:25:40.910Z,74.24
2019-02-25T04:28:11.355Z,73.77
2019-02-25T04:30:42.037Z,73.15
2019-02-25T04:33:12.323Z,72.70
2019-02-25T04:35:42.643Z,72.28
2019-02-25T04:38:13.380Z,72.15
2019-02-25T04:40:44.051Z,72.50
2019-02-25T04:43:14.566Z,73.00
2019-02-25T04:45:45.193Z,74.50
2019-02-25T04:48:15.643Z,74.95
2019-02-25T04:50:46.263Z,75.46
2019-02-25T04:53:16.580Z,75.89
2019-02-25T04:55:46.867Z,76.40
2019-02-25T04:58:17.540Z,76.98
2019-02-25T05:00:48.053Z,77.34
2019-02-25T05:03:18.326Z,77.22
2019-02-25T05:05:48.828Z,76.40
2019-02-25T05:08:19.362Z,76.22
2019-02-25T05:10:50.123Z,76.69
2019-02-25T05:13:20.416Z,77.04
2019-02-25T05:15:52.005Z,76.42
2019-02-25T05:18:23.639Z,75.66
2019-02-25T05:20:54.030Z,75.34
2019-02-25T05:23:25.585Z,75.18
2019-02-25T05:25:55.950Z,75.01
2019-02-25T05:28:26.613Z,74.69
2019-02-25T05:30:56.924Z,75.01
2019-02-25T05:33:27.715Z,75.17
2019-02-25T05:35:58.364Z,75.11
2019-02-25T05:38:28.706Z,75.39
2019-02-25T05:40:59.214Z,75.46
2019-02-25T05:43:29.908Z,75.41
2019-02-25T05:46:00.323Z,75.33
2019-02-25T05:48:30.751Z,75.19
2019-02-25T05:51:01.144Z,74.92
2019-02-25T05:53:31.741Z,74.33
2019-02-25T05:56:02.181Z,74.12
2019-02-25T05:58:33.035Z,74.24
2019-02-25T06:01:03.492Z,74.04
2019-02-25T06:03:33.901Z,73.42
2019-02-25T06:06:04.635Z,72.96
2019-02-25T06:08:35.340Z,72.25
2019-02-25T06:11:05.678Z,71.72
2019-02-25T06:13:36.365Z,70.37
2019-02-25T06:16:06.843Z,70.51
2019-02-25T06:18:37.778Z,69.41
2019-02-25T06:21:08.062Z,67.87
2019-02-25T06:23:38.702Z,67.90
2019-02-25T06:26:09.407Z,67.57
2019-02-25T06:28:40.930Z,66.86
2019-02-25T06:31:11.224Z,67.08
2019-02-25T06:33:41.889Z,66.96
2019-02-25T06:36:12.575Z,66.46
2019-02-25T06:38:42.916Z,65.84
2019-02-25T06:41:13.410Z,65.92
2019-02-25T06:43:45.032Z,65.63
2019-02-25T06:46:15.639Z,65.59
2019-02-25T06:48:46.097Z,65.80
2019-02-25T06:51:16.374Z,66.34
2019-02-25T06:53:47.244Z,65.40
2019-02-25T06:56:17.862Z,66.07
2019-02-25T06:58:48.205Z,66.71
2019-02-25T07:01:18.788Z,64.92
2019-02-25T07:04:08.353Z,63.63
2019-02-25T07:06:55.873Z,64.71
2019-02-25T07:09:47.416Z,65.27
2019-02-25T07:12:35.351Z,65.54
2019-02-25T07:15:31.156Z,64.97
2019-02-25T07:18:29.488Z,64.29
2019-02-25T07:21:11.435Z,63.46
2019-02-25T07:23:59.732Z,60.75
2019-02-25T07:26:42.463Z,60.93
2019-02-25T07:29:20.499Z,60.22
2019-02-25T07:32:08.652Z,58.78
2019-02-25T07:34:57.001Z,57.14
2019-02-25T07:37:42.120Z,57.16
2019-02-25T07:40:30.412Z,56.37
2019-02-25T07:43:26.080Z,57.12
2019-02-25T07:46:06.665Z,55.05
2019-02-25T07:49:14.376Z,54.44
2019-02-25T07:51:54.951Z,54.87
2019-02-25T07:54:42.884Z,54.37
2019-02-25T07:57:38.683Z,53.71
2019-02-25T08:00:23.285Z,53.24
2019-02-25T08:03:18.807Z,52.66
2019-02-25T08:06:07.657Z,52.88
2019-02-25T08:09:02.936Z,53.52
2019-02-25T08:11:53.825Z,53.15
2019-02-25T08:14:49.413Z,54.02
2019-02-25T08:17:54.075Z,53.38
2019-02-25T08:20:46.652Z,51.65
2019-02-25T08:23:40.779Z,49.84
2019-02-25T08:26:38.235Z,48.20
2019-02-25T08:29:27.472Z,47.33
2019-02-25T08:32:24.031Z,48.02
2019-02-25T08:35:19.055Z,48.65
2019-02-25T08:38:21.268Z,46.61
2019-02-25T08:41:16.066Z,45.00
2019-02-25T08:44:05.353Z,42.58
2019-02-25T08:46:54.950Z,42.32
2019-02-25T08:49:35.431Z,41.33
2019-02-25T08:52:05.718Z,39.55
2019-02-25T08:54:36.100Z,41.75
2019-02-25T08:57:06.903Z,41.62
2019-02-25T08:59:37.873Z,38.70
2019-02-25T09:02:08.434Z,37.92
2019-02-25T09:04:39.332Z,39.83
2019-02-25T09:07:09.657Z,38.73
2019-02-25T09:09:40.172Z,37.44
2019-02-25T09:12:10.438Z,37.96
2019-02-25T09:14:41.310Z,36.55
2019-02-25T09:17:12.340Z,36.98
2019-02-25T09:19:42.665Z,35.88
2019-02-25T09:22:13.507Z,35.31
2019-02-25T09:24:43.934Z,34.88
2019-02-25T09:27:14.387Z,34.17
2019-02-25T09:29:45.080Z,32.70
2019-02-25T09:32:18.968Z,33.15
2019-02-25T09:34:49.080Z,33.68
2019-02-25T09:37:19.676Z,32.12
2019-02-25T09:39:51.964Z,33.68
2019-02-25T09:42:24.225Z,31.16
2019-02-25T09:44:54.983Z,31.87
2019-02-25T09:47:25.670Z,31.89
2019-02-25T09:49:55.994Z,32.24
2019-02-25T09:52:26.419Z,30.69
2019-02-25T09:54:56.675Z,29.65
2019-02-25T09:57:26.975Z,28.23
2019-02-25T09:59:57.671Z,28.17
2019-02-25T10:02:27.966Z,27.82
2019-02-25T10:04:58.301Z,26.44
2019-02-25T10:07:28.948Z,26.54
2019-02-25T10:09:59.548Z,26.84
2019-02-25T10:12:29.906Z,27.00
2019-02-25T10:15:00.551Z,27.35
2019-02-25T10:17:31.233Z,25.36
2019-02-25T10:20:01.754Z,26.62
2019-02-25T10:22:33.226Z,25.83
2019-02-25T10:25:03.798Z,24.35
2019-02-25T10:27:34.080Z,24.96
2019-02-25T10:30:05.462Z,24.30
2019-02-25T10:32:36.167Z,24.47
2019-02-25T10:35:09.314Z,24.76
2019-02-25T10:37:41.420Z,24.00
2019-02-25T10:40:13.661Z,24.49
2019-02-25T10:42:45.154Z,22.65
2019-02-25T10:45:17.342Z,25.40
2019-02-25T10:47:49.454Z,25.01
2019-02-25T10:50:20.191Z,23.10
2019-02-25T10:52:50.606Z,25.20
2019-02-25T10:55:27.683Z,23.78
2019-02-25T10:57:59.768Z,24.04
2019-02-25T11:00:30.765Z,25.02
2019-02-25T11:03:01.126Z,25.43
2019-02-25T11:05:31.425Z,26.00
2019-02-25T11:08:06.942Z,26.49
2019-02-25T11:10:59.506Z,25.52
2019-02-25T11:13:31.810Z,27.52
2019-02-25T11:16:02.310Z,25.58
2019-02-25T11:18:32.679Z,26.89
2019-02-25T11:21:04.168Z,30.71
2019-02-25T11:23:35.411Z,25.86
2019-02-25T11:26:05.699Z,25.05
2019-02-25T11:28:38.562Z,25.17
2019-02-25T11:31:08.480Z,25.40
2019-02-25T11:33:38.928Z,25.20
2019-02-25T11:36:10.556Z,28.29
2019-02-25T11:38:41.878Z,25.94
2019-02-25T11:41:12.167Z,28.97
2019-02-25T11:43:44.094Z,29.23
2019-02-25T11:46:15.482Z,26.93
2019-02-25T11:48:45.815Z,26.93
2019-02-25T11:51:16.552Z,25.93
2019-02-25T11:53:47.600Z,24.80
2019-02-25T11:56:17.983Z,25.80
2019-02-25T11:58:48.387Z,26.12
2019-02-25T12:01:18.761Z,25.75
2019-02-25T12:03:49.339Z,27.17
2019-02-25T12:06:20.046Z,28.19
2019-02-25T12:08:50.361Z,30.26
2019-02-25T12:11:20.894Z,26.28
2019-02-25T12:13:51.733Z,29.13
2019-02-25T12:16:22.060Z,27.75
2019-02-25T12:18:52.501Z,27.87
2019-02-25T12:21:22.986Z,28.75
2019-02-25T12:23:53.841Z,28.99
2019-02-25T12:26:24.493Z,28.14
2019-02-25T12:28:55.084Z,27.54
2019-02-25T12:31:25.394Z,30.97
2019-02-25T12:33:56.168Z,28.51
2019-02-25T12:36:26.459Z,28.94
2019-02-25T12:38:56.771Z,26.95
2019-02-25T12:41:27.564Z,26.84
2019-02-25T12:43:57.952Z,26.95
2019-02-25T12:46:28.257Z,25.56
2019-02-25T12:48:58.879Z,25.69
2019-02-25T12:51:29.308Z,28.03
2019-02-25T12:53:59.997Z,27.38
2019-02-25T12:56:30.257Z,27.85
2019-02-25T12:59:00.608Z,26.16
2019-02-25T13:01:30.949Z,26.14
2019-02-25T13:04:01.267Z,25.18
2019-02-25T13:06:31.749Z,28.20
2019-02-25T13:09:02.486Z,27.36
2019-02-25T13:11:34.631Z,25.96
2019-02-25T13:14:04.901Z,26.25
2019-02-25T13:16:36.666Z,25.20
2019-02-25T13:19:07.256Z,27.29
2019-02-25T13:21:37.811Z,25.23
2019-02-25T13:24:09.891Z,26.11
2019-02-25T13:26:40.343Z,24.34
2019-02-25T13:29:10.707Z,26.87
2019-02-25T13:31:41.038Z,27.77
2019-02-25T13:34:11.574Z,25.79
2019-02-25T13:36:42.300Z,26.99
2019-02-25T13:39:13.224Z,26.55
2019-02-25T13:41:43.958Z,25.60
2019-02-25T13:44:14.507Z,25.38
2019-02-25T13:46:45.136Z,23.99
2019-02-25T13:49:15.467Z,24.32
2019-02-25T13:51:45.835Z,25.40
2019-02-25T13:54:16.502Z,25.49
2019-02-25T13:56:46.837Z,26.16
2019-02-25T13:59:17.254Z,26.92
2019-02-25T14:01:47.565Z,26.78
2019-02-25T14:04:18.579Z,26.15
2019-02-25T14:06:49.573Z,27.44
2019-02-25T14:09:19.848Z,26.57
2019-02-25T14:11:50.510Z,27.68
2019-02-25T14:14:21.266Z,27.81
2019-02-25T14:16:51.647Z,27.12
2019-02-25T14:19:21.947Z,27.33
2019-02-25T14:21:52.644Z,27.42
2019-02-25T14:24:23.882Z,29.01
2019-02-25T14:26:54.636Z,27.38
2019-02-25T14:29:26.446Z,28.82
2019-02-25T14:31:57.285Z,29.50
2019-02-25T14:34:27.613Z,28.42
2019-02-25T14:36:59.741Z,27.95
2019-02-25T14:39:32.730Z,28.36
2019-02-25T14:42:04.391Z,27.38
2019-02-25T14:44:35.815Z,27.58
2019-02-25T14:47:19.322Z,27.96
2019-02-25T14:49:40.341Z,28.05
2019-02-25T14:52:11.973Z,28.00
2019-02-25T14:54:42.829Z,28.24
2019-02-25T14:57:13.211Z,26.07
2019-02-25T14:59:43.506Z,26.26
2019-02-25T15:02:13.973Z,27.02
2019-02-25T15:04:44.872Z,26.25
2019-02-25T15:07:16.235Z,27.40
2019-02-25T15:09:46.533Z,26.67
2019-02-25T15:12:17.186Z,27.53
2019-02-25T15:14:47.902Z,27.19
2019-02-25T15:17:19.161Z,27.61
2019-02-25T15:19:49.569Z,26.75
2019-02-25T15:22:20.194Z,26.77
2019-02-25T15:24:52.426Z,27.32
2019-02-25T15:27:22.801Z,28.55
2019-02-25T15:29:53.233Z,27.21
2019-02-25T15:32:23.691Z,27.12
2019-02-25T15:34:55.516Z,27.90
2019-02-25T15:37:26.532Z,28.04
2019-02-25T15:39:56.852Z,27.38
2019-02-25T15:42:29.769Z,26.72
2019-02-25T15:45:01.042Z,28.54
2019-02-25T15:47:31.486Z,28.38
2019-02-25T15:50:04.393Z,28.71
2019-02-25T15:52:40.013Z,27.98
2019-02-25T15:55:13.070Z,29.55
2019-02-25T15:57:42.163Z,31.27
2019-02-25T16:00:14.497Z,30.97
2019-02-25T16:02:44.838Z,30.46
2019-02-25T16:05:15.862Z,31.83
2019-02-25T16:07:49.786Z,32.93
2019-02-25T16:10:19.941Z,33.87
2019-02-25T16:12:51.202Z,37.14
2019-02-25T16:15:22.639Z,37.65
2019-02-25T16:17:53.666Z,38.41
2019-02-25T16:20:25.226Z,39.94
2019-02-25T16:22:56.571Z,41.17
2019-02-25T16:25:29.898Z,42.24
2019-02-25T16:28:00.293Z,43.55
2019-02-25T16:30:30.904Z,43.56
2019-02-25T16:33:02.887Z,44.58
2019-02-25T16:35:34.860Z,44.91
2019-02-25T16:38:07.367Z,44.34
2019-02-25T16:40:40.066Z,45.07
2019-02-25T16:43:12.703Z,45.53
2019-02-25T16:45:45.261Z,45.13
2019-02-25T16:48:17.254Z,45.03
2019-02-25T16:50:47.723Z,45.11
2019-02-25T16:53:20.010Z,45.85
2019-02-25T16:55:51.563Z,45.69
2019-02-25T16:58:21.987Z,46.70
2019-02-25T17:00:56.209Z,46.92
2019-02-25T17:03:24.645Z,47.51
2019-02-25T17:05:55.280Z,47.09
2019-02-25T17:08:26.069Z,47.61
2019-02-25T17:10:59.896Z,47.90
2019-02-25T17:13:32.468Z,48.49
2019-02-25T17:16:03.296Z,48.82
2019-02-25T17:18:33.784Z,48.74
2019-02-25T17:21:05.176Z,48.75
2019-02-25T17:23:38.273Z,48.92
2019-02-25T17:26:10.538Z,48.56
2019-02-25T17:28:40.691Z,48.30
2019-02-25T17:31:11.989Z,48.94
2019-02-25T17:33:43.428Z,49.54
2019-02-25T17:36:14.681Z,49.11
2019-02-25T17:38:47.579Z,49.89
2019-02-25T17:41:18.988Z,50.26
2019-02-25T17:43:49.580Z,50.53
2019-02-25T17:46:19.878Z,50.64
2019-02-25T17:48:50.307Z,50.32
2019-02-25T17:51:22.690Z,49.91
2019-02-25T17:53:54.717Z,49.38
2019-02-25T17:56:26.967Z,49.09
2019-02-25T17:58:59.434Z,49.28
2019-02-25T18:01:30.759Z,50.21
2019-02-25T18:04:02.536Z,54.19
2019-02-25T18:06:33.992Z,55.46
2019-02-25T18:09:06.875Z,56.84
2019-02-25T18:11:39.083Z,57.61
2019-02-25T18:14:11.142Z,57.76
2019-02-25T18:16:45.958Z,57.37
2019-02-25T18:19:15.908Z,57.75
2019-02-25T18:21:47.078Z,58.27
2019-02-25T18:24:17.391Z,58.61
2019-02-25T18:26:47.975Z,59.12
2019-02-25T18:29:20.374Z,59.16
2019-02-25T18:31:50.801Z,59.54
2019-02-25T18:34:21.475Z,59.51
2019-02-25T18:36:53.728Z,59.38
2019-02-25T18:39:25.261Z,60.01
2019-02-25T18:41:57.233Z,60.07
2019-02-25T18:44:29.637Z,60.04
2019-02-25T18:47:00.086Z,59.32
2019-02-25T18:49:32.522Z,59.48
2019-02-25T18:52:02.796Z,59.84
2019-02-25T18:54:33.121Z,57.81
2019-02-25T18:57:05.393Z,57.90
2019-02-25T18:59:36.026Z,59.29
2019-02-25T19:02:08.020Z,59.80
2019-02-25T19:04:39.678Z,58.49
2019-02-25T19:07:11.353Z,57.48
2019-02-25T19:09:43.060Z,57.10
2019-02-25T19:12:16.482Z,58.21
2019-02-25T19:14:46.957Z,57.96
2019-02-25T19:17:17.978Z,58.56
2019-02-25T19:19:51.510Z,59.31
2019-02-25T19:22:22.254Z,59.10
2019-02-25T19:24:52.525Z,59.86
2019-02-25T19:27:25.013Z,60.70
2019-02-25T19:29:58.622Z,61.19
2019-02-25T19:32:27.887Z,61.77
2019-02-25T19:35:04.040Z,62.04
2019-02-25T19:37:38.194Z,60.80
2019-02-25T19:40:14.003Z,59.41
2019-02-25T19:42:47.308Z,60.13
2019-02-25T19:45:20.575Z,60.13
2019-02-25T19:47:55.504Z,60.02
2019-02-25T19:50:29.899Z,60.13
2019-02-25T19:53:04.631Z,60.03
2019-02-25T19:55:36.173Z,59.91
2019-02-25T19:58:06.765Z,59.93
2019-02-25T20:00:37.033Z,60.50
2019-02-25T20:03:07.385Z,61.72
2019-02-25T20:05:41.132Z,62.70
2019-02-25T20:08:10.224Z,62.39
2019-02-25T20:10:40.500Z,61.49
2019-02-25T20:13:11.364Z,59.72
2019-02-25T20:15:42.472Z,56.56
2019-02-25T20:18:15.628Z,55.01
2019-02-25T20:20:45.843Z,54.62
2019-02-25T20:23:16.259Z,54.39
2019-02-25T20:25:48.840Z,53.63
2019-02-25T20:28:20.718Z,52.71
2019-02-25T20:30:51.602Z,52.30
2019-02-25T20:33:29.376Z,50.55
2019-02-25T20:35:58.383Z,51.08
2019-02-25T20:38:29.608Z,49.69
2019-02-25T20:41:02.504Z,49.07
2019-02-25T20:43:33.494Z,48.72
2019-02-25T20:46:05.970Z,47.16
2019-02-25T20:48:36.393Z,47.30
2019-02-25T20:51:07.754Z,47.12
2019-02-25T20:53:38.766Z,47.13
2019-02-25T20:56:09.485Z,47.43
2019-02-25T20:58:40.185Z,48.11
2019-02-25T21:01:13.616Z,47.43
2019-02-25T21:03:46.039Z,47.49
2019-02-25T21:06:19.486Z,47.60
2019-02-25T21:08:50.838Z,47.60
2019-02-25T21:11:21.582Z,48.50
2019-02-25T21:13:51.900Z,47.57
2019-02-25T21:16:24.047Z,47.49
2019-02-25T21:18:55.055Z,47.65
2019-02-25T21:21:28.214Z,47.62
2019-02-25T21:24:01.340Z,48.89
2019-02-25T21:26:31.543Z,47.54
2019-02-25T21:29:04.644Z,47.92
2019-02-25T21:31:35.126Z,47.22
2019-02-25T21:34:06.478Z,47.24
2019-02-25T21:36:38.165Z,47.66
2019-02-25T21:39:12.220Z,47.30
2019-02-25T21:41:44.034Z,47.99
2019-02-25T21:44:18.914Z,48.80
2019-02-25T21:46:51.837Z,48.82
2019-02-25T21:49:20.267Z,47.79
2019-02-25T21:51:51.875Z,47.96
2019-02-25T21:54:22.682Z,47.59
2019-02-25T21:56:53.125Z,47.76
2019-02-25T21:59:23.524Z,47.25
2019-02-25T22:01:55.727Z,46.93
2019-02-25T22:04:26.415Z,47.30
2019-02-25T22:06:58.101Z,48.07
2019-02-25T22:09:36.518Z,48.12
2019-02-25T22:12:01.512Z,47.96
2019-02-25T22:14:32.276Z,47.92
2019-02-25T22:17:02.662Z,47.79
2019-02-25T22:19:35.026Z,48.63
2019-02-25T22:22:07.092Z,48.49
2019-02-25T22:24:40.534Z,47.95
2019-02-25T22:27:11.917Z,48.21
2019-02-25T22:29:45.168Z,48.61
2019-02-25T22:32:16.201Z,49.13
2019-02-25T22:34:46.556Z,48.80
2019-02-25T22:37:19.372Z,48.16
2019-02-25T22:39:50.898Z,48.12
2019-02-25T22:42:21.407Z,48.58
2019-02-25T22:44:53.886Z,48.35
2019-02-25T22:47:24.112Z,48.02
2019-02-25T22:49:54.932Z,49.11
2019-02-25T22:52:27.194Z,48.59
2019-02-25T22:54:57.466Z,48.05
2019-02-25T22:57:29.575Z,48.57
2019-02-25T23:00:00.530Z,48.82
2019-02-25T23:02:32.291Z,49.13
2019-02-25T23:05:02.871Z,49.21
2019-02-25T23:07:33.562Z,49.44
2019-02-25T23:10:03.888Z,49.60
2019-02-25T23:12:34.241Z,49.71
2019-02-25T23:15:06.099Z,49.40
2019-02-25T23:17:37.533Z,48.49
2019-02-25T23:20:09.392Z,48.28
2019-02-25T23:22:39.823Z,48.12
2019-02-25T23:25:10.803Z,48.07
2019-02-25T23:27:41.146Z,48.14
2019-02-25T23:30:11.812Z,48.55
2019-02-25T23:32:42.657Z,48.26
2019-02-25T23:35:15.608Z,47.76
2019-02-25T23:37:49.049Z,47.99
2019-02-25T23:40:17.477Z,46.85
2019-02-25T23:42:49.105Z,46.34
2019-02-25T23:45:21.250Z,47.03
2019-02-25T23:47:55.327Z,47.17
2019-02-25T23:50:25.725Z,46.24
2019-02-25T23:52:56.108Z,47.04
2019-02-25T23:55:27.767Z,45.88
2019-02-25T23:57:58.705Z,46.59
